sensor_id;sensor_type;location;lat;lon;timestamp;temperature;humidity
41447;DHT22;27185;52.040;4.490;2023-02-05T00:01:43;10.90;99.90
41447;DHT22;27185;52.040;4.490;2023-02-05T00:04:29;10.90;99.90
41447;DHT22;27185;52.040;4.490;2023-02-05T00:07:15;10.80;99.90
41447;DHT22;27185;52.040;4.490;2023-02-05T00:10:00;10.80;99.90
41447;DHT22;27185;52.040;4.490;2023-02-05T00:12:46;10.80;99.90
41447;DHT22;27185;52.040;4.490;2023-02-05T00:15:31;10.80;99.90
41447;DHT22;27185;52.040;4.490;2023-02-05T00:18:17;10.80;99.90
41447;DHT22;27185;52.040;4.490;2023-02-05T00:21:04;10.80;99.90
41447;DHT22;27185;52.040;4.490;2023-02-05T00:23:50;10.80;99.90
41447;DHT22;27185;52.040;4.490;2023-02-05T00:26:35;10.70;99.90
41447;DHT22;27185;52.040;4.490;2023-02-05T00:29:21;10.70;99.90
41447;DHT22;27185;52.040;4.490;2023-02-05T00:32:07;10.70;99.90
41447;DHT22;27185;52.040;4.490;2023-02-05T00:34:52;10.70;99.90
41447;DHT22;27185;52.040;4.490;2023-02-05T00:37:38;10.70;99.90
41447;DHT22;27185;52.040;4.490;2023-02-05T00:40:24;10.70;99.90
41447;DHT22;27185;52.040;4.490;2023-02-05T00:43:09;10.70;99.90
41447;DHT22;27185;52.040;4.490;2023-02-05T00:45:55;10.70;99.90
41447;DHT22;27185;52.040;4.490;2023-02-05T00:48:41;10.70;99.90
41447;DHT22;27185;52.040;4.490;2023-02-05T00:51:27;10.70;99.90
41447;DHT22;27185;52.040;4.490;2023-02-05T00:54:12;10.70;99.90
41447;DHT22;27185;52.040;4.490;2023-02-05T00:56:58;10.70;99.90
41447;DHT22;27185;52.040;4.490;2023-02-05T00:59:43;10.70;99.90
41447;DHT22;27185;52.040;4.490;2023-02-05T01:02:29;10.70;99.90
41447;DHT22;27185;52.040;4.490;2023-02-05T01:05:15;10.70;99.90
41447;DHT22;27185;52.040;4.490;2023-02-05T01:08:01;10.70;99.90
41447;DHT22;27185;52.040;4.490;2023-02-05T01:10:49;10.70;99.90
41447;DHT22;27185;52.040;4.490;2023-02-05T01:13:35;10.70;99.90
41447;DHT22;27185;52.040;4.490;2023-02-05T01:16:20;10.70;99.90
41447;DHT22;27185;52.040;4.490;2023-02-05T01:19:06;10.70;99.90
41447;DHT22;27185;52.040;4.490;2023-02-05T01:21:51;10.70;99.90
41447;DHT22;27185;52.040;4.490;2023-02-05T01:24:37;10.70;99.90
41447;DHT22;27185;52.040;4.490;2023-02-05T01:27:23;10.70;99.90
41447;DHT22;27185;52.040;4.490;2023-02-05T01:30:09;10.70;99.90
41447;DHT22;27185;52.040;4.490;2023-02-05T01:32:56;10.70;99.90
41447;DHT22;27185;52.040;4.490;2023-02-05T01:35:42;10.70;99.90
41447;DHT22;27185;52.040;4.490;2023-02-05T01:38:29;10.60;99.90
41447;DHT22;27185;52.040;4.490;2023-02-05T01:41:15;10.60;99.90
41447;DHT22;27185;52.040;4.490;2023-02-05T01:44:09;10.70;99.90
41447;DHT22;27185;52.040;4.490;2023-02-05T01:46:56;10.60;99.90
41447;DHT22;27185;52.040;4.490;2023-02-05T01:49:42;10.60;99.90
41447;DHT22;27185;52.040;4.490;2023-02-05T01:52:28;10.60;99.90
41447;DHT22;27185;52.040;4.490;2023-02-05T01:55:14;10.60;99.90
41447;DHT22;27185;52.040;4.490;2023-02-05T01:58:00;10.70;99.90
41447;DHT22;27185;52.040;4.490;2023-02-05T02:00:46;10.60;99.90
41447;DHT22;27185;52.040;4.490;2023-02-05T02:03:32;10.60;99.90
41447;DHT22;27185;52.040;4.490;2023-02-05T02:06:17;10.60;99.90
41447;DHT22;27185;52.040;4.490;2023-02-05T02:09:05;10.60;99.90
41447;DHT22;27185;52.040;4.490;2023-02-05T02:11:51;10.60;99.90
41447;DHT22;27185;52.040;4.490;2023-02-05T02:14:37;10.60;99.90
41447;DHT22;27185;52.040;4.490;2023-02-05T02:17:25;10.60;99.90
41447;DHT22;27185;52.040;4.490;2023-02-05T02:20:15;10.50;99.90
41447;DHT22;27185;52.040;4.490;2023-02-05T02:23:20;10.50;99.90
41447;DHT22;27185;52.040;4.490;2023-02-05T02:32:37;10.50;99.90
41447;DHT22;27185;52.040;4.490;2023-02-05T02:39:14;10.50;99.90
41447;DHT22;27185;52.040;4.490;2023-02-05T02:42:02;10.50;99.90
41447;DHT22;27185;52.040;4.490;2023-02-05T02:44:59;10.50;99.90
41447;DHT22;27185;52.040;4.490;2023-02-05T02:47:50;10.50;99.90
41447;DHT22;27185;52.040;4.490;2023-02-05T02:50:40;10.50;99.90
41447;DHT22;27185;52.040;4.490;2023-02-05T02:53:33;10.50;99.90
41447;DHT22;27185;52.040;4.490;2023-02-05T02:56:23;10.50;99.90
41447;DHT22;27185;52.040;4.490;2023-02-05T02:59:22;10.50;99.90
41447;DHT22;27185;52.040;4.490;2023-02-05T03:02:10;10.50;99.90
41447;DHT22;27185;52.040;4.490;2023-02-05T03:05:02;10.50;99.90
41447;DHT22;27185;52.040;4.490;2023-02-05T03:08:02;10.50;99.90
41447;DHT22;27185;52.040;4.490;2023-02-05T03:11:02;10.50;99.90
41447;DHT22;27185;52.040;4.490;2023-02-05T03:13:51;10.50;99.90
41447;DHT22;27185;52.040;4.490;2023-02-05T03:16:37;10.50;99.90
41447;DHT22;27185;52.040;4.490;2023-02-05T03:19:23;10.50;99.90
41447;DHT22;27185;52.040;4.490;2023-02-05T03:22:08;10.50;99.90
41447;DHT22;27185;52.040;4.490;2023-02-05T03:24:54;10.50;99.90
41447;DHT22;27185;52.040;4.490;2023-02-05T03:27:40;10.40;99.90
41447;DHT22;27185;52.040;4.490;2023-02-05T03:30:31;10.40;99.90
41447;DHT22;27185;52.040;4.490;2023-02-05T03:36:22;10.30;99.90
41447;DHT22;27185;52.040;4.490;2023-02-05T03:39:23;10.30;99.90
41447;DHT22;27185;52.040;4.490;2023-02-05T03:51:50;10.10;99.90
41447;DHT22;27185;52.040;4.490;2023-02-05T03:54:49;10.00;99.90
41447;DHT22;27185;52.040;4.490;2023-02-05T03:57:52;10.00;99.90
41447;DHT22;27185;52.040;4.490;2023-02-05T04:00:40;10.00;99.90
41447;DHT22;27185;52.040;4.490;2023-02-05T04:03:26;9.90;99.90
41447;DHT22;27185;52.040;4.490;2023-02-05T04:06:12;9.90;99.90
41447;DHT22;27185;52.040;4.490;2023-02-05T04:08:58;9.90;99.90
41447;DHT22;27185;52.040;4.490;2023-02-05T04:11:43;9.90;99.90
41447;DHT22;27185;52.040;4.490;2023-02-05T04:14:29;9.90;99.90
41447;DHT22;27185;52.040;4.490;2023-02-05T04:17:15;9.90;99.90
41447;DHT22;27185;52.040;4.490;2023-02-05T04:20:00;9.90;99.90
41447;DHT22;27185;52.040;4.490;2023-02-05T04:22:46;9.80;99.90
41447;DHT22;27185;52.040;4.490;2023-02-05T04:25:31;9.80;99.90
41447;DHT22;27185;52.040;4.490;2023-02-05T04:28:17;9.80;99.90
41447;DHT22;27185;52.040;4.490;2023-02-05T04:31:09;9.80;99.90
41447;DHT22;27185;52.040;4.490;2023-02-05T04:33:57;9.80;99.90
41447;DHT22;27185;52.040;4.490;2023-02-05T04:36:43;9.80;99.90
41447;DHT22;27185;52.040;4.490;2023-02-05T04:39:29;9.80;99.90
41447;DHT22;27185;52.040;4.490;2023-02-05T04:42:15;9.70;99.90
41447;DHT22;27185;52.040;4.490;2023-02-05T04:45:01;9.70;99.90
41447;DHT22;27185;52.040;4.490;2023-02-05T04:47:47;9.70;99.90
41447;DHT22;27185;52.040;4.490;2023-02-05T04:50:33;9.60;99.90
41447;DHT22;27185;52.040;4.490;2023-02-05T04:53:19;9.60;99.90
41447;DHT22;27185;52.040;4.490;2023-02-05T04:58:50;9.50;99.90
41447;DHT22;27185;52.040;4.490;2023-02-05T05:01:36;9.50;99.90
41447;DHT22;27185;52.040;4.490;2023-02-05T05:04:21;9.50;99.90
41447;DHT22;27185;52.040;4.490;2023-02-05T05:07:07;9.40;99.90
41447;DHT22;27185;52.040;4.490;2023-02-05T05:09:53;9.40;99.90
41447;DHT22;27185;52.040;4.490;2023-02-05T05:12:39;9.40;99.90
41447;DHT22;27185;52.040;4.490;2023-02-05T05:15:25;9.40;99.90
41447;DHT22;27185;52.040;4.490;2023-02-05T05:18:10;9.40;99.90
41447;DHT22;27185;52.040;4.490;2023-02-05T05:20:56;9.30;99.90
41447;DHT22;27185;52.040;4.490;2023-02-05T05:23:41;9.30;99.90
41447;DHT22;27185;52.040;4.490;2023-02-05T05:26:27;9.30;99.90
41447;DHT22;27185;52.040;4.490;2023-02-05T05:29:13;9.30;99.90
41447;DHT22;27185;52.040;4.490;2023-02-05T05:31:58;9.20;99.90
41447;DHT22;27185;52.040;4.490;2023-02-05T05:34:44;9.10;99.90
41447;DHT22;27185;52.040;4.490;2023-02-05T05:37:30;9.00;99.90
41447;DHT22;27185;52.040;4.490;2023-02-05T05:40:15;9.00;99.90
41447;DHT22;27185;52.040;4.490;2023-02-05T05:43:20;8.90;99.90
41447;DHT22;27185;52.040;4.490;2023-02-05T05:46:25;8.80;99.90
41447;DHT22;27185;52.040;4.490;2023-02-05T05:49:10;8.80;99.90
41447;DHT22;27185;52.040;4.490;2023-02-05T05:51:56;8.80;99.90
41447;DHT22;27185;52.040;4.490;2023-02-05T05:54:41;8.80;99.90
41447;DHT22;27185;52.040;4.490;2023-02-05T05:57:27;8.80;99.90
41447;DHT22;27185;52.040;4.490;2023-02-05T06:00:13;8.80;99.90
41447;DHT22;27185;52.040;4.490;2023-02-05T06:02:59;8.80;99.90
41447;DHT22;27185;52.040;4.490;2023-02-05T06:05:44;8.90;99.90
41447;DHT22;27185;52.040;4.490;2023-02-05T06:08:30;8.90;99.90
41447;DHT22;27185;52.040;4.490;2023-02-05T06:11:16;8.90;99.90
41447;DHT22;27185;52.040;4.490;2023-02-05T06:14:02;8.90;99.90
41447;DHT22;27185;52.040;4.490;2023-02-05T06:16:47;9.00;99.90
41447;DHT22;27185;52.040;4.490;2023-02-05T06:19:33;9.00;99.90
41447;DHT22;27185;52.040;4.490;2023-02-05T06:22:18;9.00;99.90
41447;DHT22;27185;52.040;4.490;2023-02-05T06:25:04;9.00;99.90
41447;DHT22;27185;52.040;4.490;2023-02-05T06:27:50;9.10;99.90
41447;DHT22;27185;52.040;4.490;2023-02-05T06:30:36;9.00;99.90
41447;DHT22;27185;52.040;4.490;2023-02-05T06:33:21;9.10;99.90
41447;DHT22;27185;52.040;4.490;2023-02-05T06:36:07;9.10;99.90
41447;DHT22;27185;52.040;4.490;2023-02-05T06:38:52;9.10;99.90
41447;DHT22;27185;52.040;4.490;2023-02-05T06:41:38;9.10;99.90
41447;DHT22;27185;52.040;4.490;2023-02-05T06:44:24;9.20;99.90
41447;DHT22;27185;52.040;4.490;2023-02-05T06:47:09;9.20;99.90
41447;DHT22;27185;52.040;4.490;2023-02-05T06:49:55;9.20;99.90
41447;DHT22;27185;52.040;4.490;2023-02-05T06:52:40;9.20;99.90
41447;DHT22;27185;52.040;4.490;2023-02-05T06:55:26;9.20;99.90
41447;DHT22;27185;52.040;4.490;2023-02-05T06:58:12;9.30;99.90
41447;DHT22;27185;52.040;4.490;2023-02-05T07:00:57;9.30;99.90
41447;DHT22;27185;52.040;4.490;2023-02-05T07:03:43;9.30;99.90
41447;DHT22;27185;52.040;4.490;2023-02-05T07:06:29;9.30;99.90
41447;DHT22;27185;52.040;4.490;2023-02-05T07:09:14;9.30;99.90
41447;DHT22;27185;52.040;4.490;2023-02-05T07:12:00;9.30;99.90
41447;DHT22;27185;52.040;4.490;2023-02-05T07:14:45;9.30;99.90
41447;DHT22;27185;52.040;4.490;2023-02-05T07:17:31;9.30;99.90
41447;DHT22;27185;52.040;4.490;2023-02-05T07:20:17;9.30;99.90
41447;DHT22;27185;52.040;4.490;2023-02-05T07:23:03;9.30;99.90
41447;DHT22;27185;52.040;4.490;2023-02-05T07:25:50;9.20;99.90
41447;DHT22;27185;52.040;4.490;2023-02-05T07:28:35;9.30;99.90
41447;DHT22;27185;52.040;4.490;2023-02-05T07:31:21;9.30;99.90
41447;DHT22;27185;52.040;4.490;2023-02-05T07:34:07;9.30;99.90
41447;DHT22;27185;52.040;4.490;2023-02-05T07:36:52;9.30;99.90
41447;DHT22;27185;52.040;4.490;2023-02-05T07:39:38;9.30;99.90
41447;DHT22;27185;52.040;4.490;2023-02-05T07:42:23;9.40;99.90
41447;DHT22;27185;52.040;4.490;2023-02-05T07:45:09;9.40;99.90
41447;DHT22;27185;52.040;4.490;2023-02-05T07:47:54;9.40;99.90
41447;DHT22;27185;52.040;4.490;2023-02-05T07:50:43;9.40;99.90
41447;DHT22;27185;52.040;4.490;2023-02-05T07:53:29;9.40;99.90
41447;DHT22;27185;52.040;4.490;2023-02-05T07:56:16;9.40;99.90
41447;DHT22;27185;52.040;4.490;2023-02-05T07:59:02;9.40;99.90
41447;DHT22;27185;52.040;4.490;2023-02-05T08:01:47;9.40;99.90
41447;DHT22;27185;52.040;4.490;2023-02-05T08:04:33;9.40;99.90
41447;DHT22;27185;52.040;4.490;2023-02-05T08:07:18;9.50;99.90
41447;DHT22;27185;52.040;4.490;2023-02-05T08:10:04;9.50;99.90
41447;DHT22;27185;52.040;4.490;2023-02-05T08:12:50;9.60;99.90
41447;DHT22;27185;52.040;4.490;2023-02-05T08:15:39;9.60;99.90
41447;DHT22;27185;52.040;4.490;2023-02-05T08:18:25;9.60;99.90
41447;DHT22;27185;52.040;4.490;2023-02-05T08:21:10;9.60;99.90
41447;DHT22;27185;52.040;4.490;2023-02-05T08:23:56;9.70;99.90
41447;DHT22;27185;52.040;4.490;2023-02-05T08:26:42;9.60;99.90
41447;DHT22;27185;52.040;4.490;2023-02-05T08:29:28;9.70;99.90
41447;DHT22;27185;52.040;4.490;2023-02-05T08:32:14;9.70;99.90
41447;DHT22;27185;52.040;4.490;2023-02-05T08:34:59;9.70;99.90
41447;DHT22;27185;52.040;4.490;2023-02-05T08:37:45;9.70;99.90
41447;DHT22;27185;52.040;4.490;2023-02-05T08:40:31;9.70;99.90
41447;DHT22;27185;52.040;4.490;2023-02-05T08:43:17;9.70;99.90
41447;DHT22;27185;52.040;4.490;2023-02-05T08:46:03;9.70;99.90
41447;DHT22;27185;52.040;4.490;2023-02-05T08:48:49;9.70;99.90
41447;DHT22;27185;52.040;4.490;2023-02-05T08:51:35;9.80;99.90
41447;DHT22;27185;52.040;4.490;2023-02-05T08:54:20;9.80;99.90
41447;DHT22;27185;52.040;4.490;2023-02-05T08:57:06;9.90;99.90
41447;DHT22;27185;52.040;4.490;2023-02-05T08:59:52;9.90;99.90
41447;DHT22;27185;52.040;4.490;2023-02-05T09:02:39;9.90;99.90
41447;DHT22;27185;52.040;4.490;2023-02-05T09:05:25;9.90;99.90
41447;DHT22;27185;52.040;4.490;2023-02-05T09:08:10;10.00;99.90
41447;DHT22;27185;52.040;4.490;2023-02-05T09:10:56;10.00;99.90
41447;DHT22;27185;52.040;4.490;2023-02-05T09:13:42;10.00;99.90
41447;DHT22;27185;52.040;4.490;2023-02-05T09:16:28;10.00;99.90
41447;DHT22;27185;52.040;4.490;2023-02-05T09:19:13;10.00;99.90
41447;DHT22;27185;52.040;4.490;2023-02-05T09:21:59;10.10;99.90
41447;DHT22;27185;52.040;4.490;2023-02-05T09:24:44;10.10;99.90
41447;DHT22;27185;52.040;4.490;2023-02-05T09:27:30;10.10;99.90
41447;DHT22;27185;52.040;4.490;2023-02-05T09:30:16;10.10;99.90
41447;DHT22;27185;52.040;4.490;2023-02-05T09:33:02;10.10;99.90
41447;DHT22;27185;52.040;4.490;2023-02-05T09:35:48;10.10;99.90
41447;DHT22;27185;52.040;4.490;2023-02-05T09:38:33;10.10;99.90
41447;DHT22;27185;52.040;4.490;2023-02-05T09:41:26;10.20;99.90
41447;DHT22;27185;52.040;4.490;2023-02-05T09:47:33;10.20;99.90
41447;DHT22;27185;52.040;4.490;2023-02-05T09:50:24;10.30;99.90
41447;DHT22;27185;52.040;4.490;2023-02-05T09:53:18;10.30;99.90
41447;DHT22;27185;52.040;4.490;2023-02-05T09:56:06;10.40;99.90
41447;DHT22;27185;52.040;4.490;2023-02-05T09:58:54;10.40;99.90
41447;DHT22;27185;52.040;4.490;2023-02-05T10:01:48;10.50;99.90
41447;DHT22;27185;52.040;4.490;2023-02-05T10:04:35;10.60;99.90
41447;DHT22;27185;52.040;4.490;2023-02-05T10:07:40;10.60;99.90
41447;DHT22;27185;52.040;4.490;2023-02-05T10:10:35;10.70;99.90
41447;DHT22;27185;52.040;4.490;2023-02-05T10:13:34;10.70;99.90
41447;DHT22;27185;52.040;4.490;2023-02-05T10:16:36;10.70;99.90
41447;DHT22;27185;52.040;4.490;2023-02-05T10:19:32;10.80;99.90
41447;DHT22;27185;52.040;4.490;2023-02-05T10:22:25;10.80;99.90
41447;DHT22;27185;52.040;4.490;2023-02-05T10:34:28;10.70;99.90
41447;DHT22;27185;52.040;4.490;2023-02-05T10:37:20;10.70;99.90
41447;DHT22;27185;52.040;4.490;2023-02-05T10:40:14;10.70;99.90
41447;DHT22;27185;52.040;4.490;2023-02-05T10:46:18;10.70;99.90
41447;DHT22;27185;52.040;4.490;2023-02-05T10:51:59;10.60;99.90
41447;DHT22;27185;52.040;4.490;2023-02-05T10:54:45;10.70;99.90
41447;DHT22;27185;52.040;4.490;2023-02-05T10:57:33;10.60;99.90
41447;DHT22;27185;52.040;4.490;2023-02-05T11:00:21;10.60;99.90
41447;DHT22;27185;52.040;4.490;2023-02-05T11:03:15;10.60;99.90
41447;DHT22;27185;52.040;4.490;2023-02-05T11:06:07;10.60;99.90
41447;DHT22;27185;52.040;4.490;2023-02-05T11:08:53;10.70;99.90
41447;DHT22;27185;52.040;4.490;2023-02-05T11:11:39;10.70;99.90
41447;DHT22;27185;52.040;4.490;2023-02-05T11:14:36;10.70;99.90
41447;DHT22;27185;52.040;4.490;2023-02-05T11:17:37;10.80;99.90
41447;DHT22;27185;52.040;4.490;2023-02-05T11:20:36;10.80;99.90
41447;DHT22;27185;52.040;4.490;2023-02-05T11:23:23;10.80;99.90
41447;DHT22;27185;52.040;4.490;2023-02-05T11:26:16;10.80;99.90
41447;DHT22;27185;52.040;4.490;2023-02-05T11:29:18;10.80;99.90
41447;DHT22;27185;52.040;4.490;2023-02-05T11:32:38;10.80;99.90
41447;DHT22;27185;52.040;4.490;2023-02-05T11:35:25;10.90;99.90
41447;DHT22;27185;52.040;4.490;2023-02-05T11:38:29;10.90;99.90
41447;DHT22;27185;52.040;4.490;2023-02-05T11:41:38;10.90;99.90
41447;DHT22;27185;52.040;4.490;2023-02-05T11:44:48;10.90;99.90
41447;DHT22;27185;52.040;4.490;2023-02-05T11:47:36;11.00;99.90
41447;DHT22;27185;52.040;4.490;2023-02-05T11:50:26;11.00;99.90
41447;DHT22;27185;52.040;4.490;2023-02-05T11:53:15;11.00;99.90
41447;DHT22;27185;52.040;4.490;2023-02-05T11:56:10;11.10;99.90
41447;DHT22;27185;52.040;4.490;2023-02-05T11:59:03;11.10;99.90
41447;DHT22;27185;52.040;4.490;2023-02-05T12:01:49;11.10;99.90
41447;DHT22;27185;52.040;4.490;2023-02-05T12:04:43;11.20;99.90
41447;DHT22;27185;52.040;4.490;2023-02-05T12:07:41;11.30;99.90
41447;DHT22;27185;52.040;4.490;2023-02-05T12:10:38;11.30;99.90
41447;DHT22;27185;52.040;4.490;2023-02-05T12:13:36;11.30;99.90
41447;DHT22;27185;52.040;4.490;2023-02-05T12:19:19;11.30;99.90
41447;DHT22;27185;52.040;4.490;2023-02-05T12:25:24;11.40;99.90
41447;DHT22;27185;52.040;4.490;2023-02-05T12:28:52;11.40;99.90
41447;DHT22;27185;52.040;4.490;2023-02-05T12:35:29;11.40;99.90
41447;DHT22;27185;52.040;4.490;2023-02-05T12:38:31;11.40;99.90
41447;DHT22;27185;52.040;4.490;2023-02-05T12:48:23;11.50;99.90
41447;DHT22;27185;52.040;4.490;2023-02-05T12:55:16;11.50;99.90
41447;DHT22;27185;52.040;4.490;2023-02-05T12:58:08;11.50;99.90
41447;DHT22;27185;52.040;4.490;2023-02-05T13:00:59;11.40;99.90
41447;DHT22;27185;52.040;4.490;2023-02-05T13:03:53;11.50;99.90
41447;DHT22;27185;52.040;4.490;2023-02-05T13:06:45;11.60;99.90
41447;DHT22;27185;52.040;4.490;2023-02-05T13:09:57;11.80;99.90
41447;DHT22;27185;52.040;4.490;2023-02-05T13:12:50;11.90;99.90
41447;DHT22;27185;52.040;4.490;2023-02-05T13:15:43;12.00;99.90
41447;DHT22;27185;52.040;4.490;2023-02-05T13:18:33;12.10;99.90
41447;DHT22;27185;52.040;4.490;2023-02-05T13:21:21;12.30;99.90
41447;DHT22;27185;52.040;4.490;2023-02-05T13:24:35;12.30;99.90
41447;DHT22;27185;52.040;4.490;2023-02-05T13:27:44;12.40;99.90
41447;DHT22;27185;52.040;4.490;2023-02-05T13:30:52;12.30;99.90
41447;DHT22;27185;52.040;4.490;2023-02-05T13:33:39;12.20;99.90
41447;DHT22;27185;52.040;4.490;2023-02-05T13:39:27;12.10;99.90
41447;DHT22;27185;52.040;4.490;2023-02-05T13:42:18;12.10;99.90
41447;DHT22;27185;52.040;4.490;2023-02-05T13:48:20;12.00;99.90
41447;DHT22;27185;52.040;4.490;2023-02-05T13:54:17;12.00;99.90
41447;DHT22;27185;52.040;4.490;2023-02-05T13:59:56;12.00;99.90
41447;DHT22;27185;52.040;4.490;2023-02-05T14:02:45;12.10;99.90
41447;DHT22;27185;52.040;4.490;2023-02-05T14:05:36;12.10;99.90
41447;DHT22;27185;52.040;4.490;2023-02-05T14:08:25;12.10;99.90
41447;DHT22;27185;52.040;4.490;2023-02-05T14:11:11;12.10;99.90
41447;DHT22;27185;52.040;4.490;2023-02-05T14:14:24;12.10;99.90
41447;DHT22;27185;52.040;4.490;2023-02-05T14:20:38;12.10;99.90
41447;DHT22;27185;52.040;4.490;2023-02-05T14:26:52;12.20;99.90
41447;DHT22;27185;52.040;4.490;2023-02-05T14:35:31;12.30;99.90
41447;DHT22;27185;52.040;4.490;2023-02-05T14:38:27;12.20;99.90
41447;DHT22;27185;52.040;4.490;2023-02-05T14:41:18;12.10;99.90
41447;DHT22;27185;52.040;4.490;2023-02-05T14:50:06;11.90;99.90
41447;DHT22;27185;52.040;4.490;2023-02-05T14:53:02;11.80;99.90
41447;DHT22;27185;52.040;4.490;2023-02-05T14:55:49;11.70;99.90
41447;DHT22;27185;52.040;4.490;2023-02-05T14:58:40;11.60;99.90
41447;DHT22;27185;52.040;4.490;2023-02-05T15:07:34;11.40;99.90
41447;DHT22;27185;52.040;4.490;2023-02-05T15:10:24;11.30;99.90
41447;DHT22;27185;52.040;4.490;2023-02-05T15:13:18;11.30;99.90
41447;DHT22;27185;52.040;4.490;2023-02-05T15:16:16;11.30;99.90
41447;DHT22;27185;52.040;4.490;2023-02-05T15:19:05;11.40;99.90
41447;DHT22;27185;52.040;4.490;2023-02-05T15:21:53;11.40;99.90
41447;DHT22;27185;52.040;4.490;2023-02-05T15:24:39;11.40;99.90
41447;DHT22;27185;52.040;4.490;2023-02-05T15:27:47;11.30;99.90
41447;DHT22;27185;52.040;4.490;2023-02-05T15:33:53;11.20;99.90
41447;DHT22;27185;52.040;4.490;2023-02-05T15:36:48;11.10;99.90
41447;DHT22;27185;52.040;4.490;2023-02-05T15:39:47;11.10;99.90
41447;DHT22;27185;52.040;4.490;2023-02-05T15:42:40;11.00;99.90
41447;DHT22;27185;52.040;4.490;2023-02-05T15:45:31;10.90;99.90
41447;DHT22;27185;52.040;4.490;2023-02-05T15:48:26;10.90;99.90
41447;DHT22;27185;52.040;4.490;2023-02-05T15:51:21;10.80;99.90
41447;DHT22;27185;52.040;4.490;2023-02-05T15:54:18;10.80;99.90
41447;DHT22;27185;52.040;4.490;2023-02-05T15:57:04;10.70;99.90
41447;DHT22;27185;52.040;4.490;2023-02-05T15:59:53;10.60;99.90
41447;DHT22;27185;52.040;4.490;2023-02-05T16:02:55;10.60;99.90
41447;DHT22;27185;52.040;4.490;2023-02-05T16:05:50;10.50;99.90
41447;DHT22;27185;52.040;4.490;2023-02-05T16:08:45;10.50;99.90
41447;DHT22;27185;52.040;4.490;2023-02-05T16:11:33;10.40;99.90
41447;DHT22;27185;52.040;4.490;2023-02-05T16:14:23;10.30;99.90
41447;DHT22;27185;52.040;4.490;2023-02-05T16:17:24;10.20;99.90
41447;DHT22;27185;52.040;4.490;2023-02-05T16:23:28;10.10;99.90
41447;DHT22;27185;52.040;4.490;2023-02-05T16:26:22;9.90;99.90
41447;DHT22;27185;52.040;4.490;2023-02-05T16:29:27;9.90;99.90
41447;DHT22;27185;52.040;4.490;2023-02-05T16:32:37;9.70;99.90
41447;DHT22;27185;52.040;4.490;2023-02-05T16:35:28;9.70;99.90
41447;DHT22;27185;52.040;4.490;2023-02-05T16:38:17;9.60;99.90
41447;DHT22;27185;52.040;4.490;2023-02-05T16:41:23;9.50;99.90
41447;DHT22;27185;52.040;4.490;2023-02-05T16:44:46;9.50;99.90
41447;DHT22;27185;52.040;4.490;2023-02-05T16:47:32;9.40;99.90
41447;DHT22;27185;52.040;4.490;2023-02-05T16:50:47;9.30;99.90
41447;DHT22;27185;52.040;4.490;2023-02-05T16:53:36;9.20;99.90
41447;DHT22;27185;52.040;4.490;2023-02-05T16:56:33;9.20;99.90
41447;DHT22;27185;52.040;4.490;2023-02-05T16:59:24;9.10;99.90
41447;DHT22;27185;52.040;4.490;2023-02-05T17:02:36;9.10;99.90
41447;DHT22;27185;52.040;4.490;2023-02-05T17:08:11;8.90;99.90
41447;DHT22;27185;52.040;4.490;2023-02-05T17:11:03;8.90;99.90
41447;DHT22;27185;52.040;4.490;2023-02-05T17:13:48;8.90;99.90
41447;DHT22;27185;52.040;4.490;2023-02-05T17:16:39;8.80;99.90
41447;DHT22;27185;52.040;4.490;2023-02-05T17:19:27;8.70;99.90
41447;DHT22;27185;52.040;4.490;2023-02-05T17:24:59;8.70;99.90
41447;DHT22;27185;52.040;4.490;2023-02-05T17:27:45;8.60;99.90
41447;DHT22;27185;52.040;4.490;2023-02-05T17:30:31;8.60;99.90
41447;DHT22;27185;52.040;4.490;2023-02-05T17:33:20;8.70;99.90
41447;DHT22;27185;52.040;4.490;2023-02-05T17:36:14;8.60;99.90
41447;DHT22;27185;52.040;4.490;2023-02-05T17:39:01;8.60;99.90
41447;DHT22;27185;52.040;4.490;2023-02-05T17:41:46;8.60;99.90
41447;DHT22;27185;52.040;4.490;2023-02-05T17:44:52;8.60;99.90
41447;DHT22;27185;52.040;4.490;2023-02-05T17:47:38;8.60;99.90
41447;DHT22;27185;52.040;4.490;2023-02-05T17:50:23;8.60;99.90
41447;DHT22;27185;52.040;4.490;2023-02-05T17:53:09;8.60;99.90
41447;DHT22;27185;52.040;4.490;2023-02-05T17:55:55;8.60;99.90
41447;DHT22;27185;52.040;4.490;2023-02-05T17:58:41;8.60;99.90
41447;DHT22;27185;52.040;4.490;2023-02-05T18:01:27;8.70;99.90
41447;DHT22;27185;52.040;4.490;2023-02-05T18:04:12;8.70;99.90
41447;DHT22;27185;52.040;4.490;2023-02-05T18:06:58;8.70;99.90
41447;DHT22;27185;52.040;4.490;2023-02-05T18:09:44;8.80;99.90
41447;DHT22;27185;52.040;4.490;2023-02-05T18:12:29;8.80;99.90
41447;DHT22;27185;52.040;4.490;2023-02-05T18:15:15;8.80;99.90
41447;DHT22;27185;52.040;4.490;2023-02-05T18:18:01;8.80;99.90
41447;DHT22;27185;52.040;4.490;2023-02-05T18:20:47;8.90;99.90
41447;DHT22;27185;52.040;4.490;2023-02-05T18:23:32;8.90;99.90
41447;DHT22;27185;52.040;4.490;2023-02-05T18:26:19;8.90;99.90
41447;DHT22;27185;52.040;4.490;2023-02-05T18:29:05;8.80;99.90
41447;DHT22;27185;52.040;4.490;2023-02-05T18:31:50;8.80;99.90
41447;DHT22;27185;52.040;4.490;2023-02-05T18:34:36;8.80;99.90
41447;DHT22;27185;52.040;4.490;2023-02-05T18:37:22;8.80;99.90
41447;DHT22;27185;52.040;4.490;2023-02-05T18:40:08;8.90;99.90
41447;DHT22;27185;52.040;4.490;2023-02-05T18:42:54;8.80;99.90
41447;DHT22;27185;52.040;4.490;2023-02-05T18:45:40;8.80;99.90
41447;DHT22;27185;52.040;4.490;2023-02-05T18:48:25;8.80;99.90
41447;DHT22;27185;52.040;4.490;2023-02-05T18:51:14;8.80;99.90
41447;DHT22;27185;52.040;4.490;2023-02-05T18:54:00;8.70;99.90
41447;DHT22;27185;52.040;4.490;2023-02-05T18:56:46;8.70;99.90
41447;DHT22;27185;52.040;4.490;2023-02-05T18:59:32;8.70;99.90
41447;DHT22;27185;52.040;4.490;2023-02-05T19:02:18;8.60;99.90
41447;DHT22;27185;52.040;4.490;2023-02-05T19:05:04;8.60;99.90
41447;DHT22;27185;52.040;4.490;2023-02-05T19:07:49;8.60;99.90
41447;DHT22;27185;52.040;4.490;2023-02-05T19:10:36;8.60;99.90
41447;DHT22;27185;52.040;4.490;2023-02-05T19:13:22;8.50;99.90
41447;DHT22;27185;52.040;4.490;2023-02-05T19:16:13;8.50;99.90
41447;DHT22;27185;52.040;4.490;2023-02-05T19:18:59;8.50;99.90
41447;DHT22;27185;52.040;4.490;2023-02-05T19:21:47;8.40;99.90
41447;DHT22;27185;52.040;4.490;2023-02-05T19:24:34;8.40;99.90
41447;DHT22;27185;52.040;4.490;2023-02-05T19:27:20;8.40;99.90
41447;DHT22;27185;52.040;4.490;2023-02-05T19:30:06;8.40;99.90
41447;DHT22;27185;52.040;4.490;2023-02-05T19:32:52;8.40;99.90
41447;DHT22;27185;52.040;4.490;2023-02-05T19:35:38;8.30;99.90
41447;DHT22;27185;52.040;4.490;2023-02-05T19:38:24;8.30;99.90
41447;DHT22;27185;52.040;4.490;2023-02-05T19:41:12;8.30;99.90
41447;DHT22;27185;52.040;4.490;2023-02-05T19:43:58;8.30;99.90
41447;DHT22;27185;52.040;4.490;2023-02-05T19:46:46;8.30;99.90
41447;DHT22;27185;52.040;4.490;2023-02-05T19:49:33;8.30;99.90
41447;DHT22;27185;52.040;4.490;2023-02-05T19:52:18;8.20;99.90